createdAt,value
2023-05-06T00:02:23.154Z,18.70
2023-05-06T00:07:26.269Z,19.87
2023-05-06T00:12:27.966Z,20.10
2023-05-06T00:17:29.707Z,19.13
2023-05-06T00:22:32.778Z,20.17
2023-05-06T00:27:34.508Z,19.43
2023-05-06T00:32:36.290Z,22.43
2023-05-06T00:37:39.337Z,17.57
2023-05-06T00:42:41.073Z,19.33
2023-05-06T00:47:43.194Z,22.57
2023-05-06T00:52:46.333Z,22.50
2023-05-06T00:57:50.356Z,20.03
2023-05-06T01:02:52.160Z,20.17
2023-05-06T01:07:58.595Z,18.80
2023-05-06T01:13:04.375Z,20.30
2023-05-06T01:18:08.863Z,21.97
2023-05-06T01:23:12.998Z,19.30
2023-05-06T01:28:14.862Z,17.77
2023-05-06T01:33:20.634Z,17.70
2023-05-06T01:38:27.894Z,19.33
2023-05-06T01:43:31.702Z,19.30
2023-05-06T01:48:33.824Z,19.47
2023-05-06T01:53:36.912Z,19.77
2023-05-06T01:58:38.629Z,19.37
2023-05-06T02:03:40.683Z,21.93
2023-05-06T02:08:44.087Z,23.83
2023-05-06T02:13:50.760Z,20.63
2023-05-06T02:18:53.784Z,15.10
2023-05-06T02:23:56.920Z,20.13
2023-05-06T02:28:58.616Z,19.87
2023-05-06T02:34:00.303Z,21.70
2023-05-06T02:39:04.652Z,26.00
2023-05-06T02:44:06.409Z,26.33
2023-05-06T02:49:26.717Z,21.07
2023-05-06T02:54:29.932Z,26.90
2023-05-06T02:59:31.668Z,16.90
2023-05-06T03:04:33.495Z,22.80
2023-05-06T03:09:36.576Z,21.37
2023-05-06T03:14:38.531Z,22.23
2023-05-06T03:19:40.346Z,18.93
2023-05-06T03:24:45.840Z,20.80
2023-05-06T03:29:47.755Z,19.90
2023-05-06T03:34:50.944Z,16.77
2023-05-06T03:39:56.828Z,23.00
2023-05-06T03:45:01.482Z,25.13
2023-05-06T03:50:07.322Z,19.67
2023-05-06T03:55:12.079Z,18.97
2023-05-06T04:00:14.787Z,35.87
2023-05-06T04:05:21.644Z,26.93
2023-05-06T04:10:24.992Z,20.67
2023-05-06T04:15:32.768Z,21.13
2023-05-06T04:20:35.780Z,17.70
2023-05-06T04:25:39.497Z,16.73
2023-05-06T04:30:41.458Z,19.23
2023-05-06T04:35:50.010Z,20.17
2023-05-06T04:40:53.590Z,22.40
2023-05-06T04:45:55.734Z,19.50
2023-05-06T04:51:04.189Z,23.23
2023-05-06T04:56:07.994Z,18.13
2023-05-06T05:01:11.450Z,22.20
2023-05-06T05:06:13.732Z,19.20
2023-05-06T05:11:16.999Z,21.27
2023-05-06T05:16:19.043Z,23.73
2023-05-06T05:21:21.614Z,18.80
2023-05-06T05:26:25.117Z,20.90
2023-05-06T05:31:29.308Z,22.60
2023-05-06T05:36:31.672Z,19.97
2023-05-06T05:41:36.869Z,26.37
2023-05-06T05:46:38.832Z,21.53
2023-05-06T05:51:41.560Z,18.47
2023-05-06T05:56:46.631Z,19.23
2023-05-06T06:01:49.118Z,23.80
2023-05-06T06:06:51.086Z,24.13
2023-05-06T06:11:54.726Z,18.50
2023-05-06T06:16:56.549Z,21.17
2023-05-06T06:21:58.360Z,20.20
2023-05-06T06:27:02.206Z,18.47
2023-05-06T06:32:04.397Z,27.00
2023-05-06T06:37:07.841Z,32.93
2023-05-06T06:42:11.272Z,21.00
2023-05-06T06:47:22.737Z,21.73
2023-05-06T06:52:24.499Z,18.63
2023-05-06T06:57:27.593Z,30.70
2023-05-06T07:02:29.364Z,21.33
2023-05-06T07:07:31.150Z,31.93
2023-05-06T07:12:34.271Z,23.77
2023-05-06T07:17:36.285Z,21.33
2023-05-06T07:22:37.995Z,24.00
2023-05-06T07:27:41.121Z,34.23
2023-05-06T07:32:43.492Z,21.90
2023-05-06T07:37:45.690Z,20.70
2023-05-06T07:42:48.762Z,23.73
2023-05-06T07:47:50.595Z,30.13
2023-05-06T07:52:52.437Z,23.53
2023-05-06T07:57:55.475Z,25.60
2023-05-06T08:02:57.363Z,27.47
2023-05-06T08:07:59.215Z,24.53
2023-05-06T08:13:02.525Z,24.00
2023-05-06T08:18:13.825Z,22.60
2023-05-06T08:23:20.260Z,28.40
2023-05-06T08:28:24.670Z,22.37
2023-05-06T08:33:27.169Z,23.60
2023-05-06T08:38:29.731Z,22.87
2023-05-06T08:43:33.318Z,26.13
2023-05-06T08:48:35.025Z,21.90
2023-05-06T08:53:37.000Z,22.90
2023-05-06T08:58:40.221Z,25.63
2023-05-06T09:03:41.933Z,23.40
2023-05-06T09:08:43.752Z,15.70
2023-05-06T09:13:46.941Z,13.20
2023-05-06T09:18:48.634Z,17.17
2023-05-06T09:23:50.697Z,13.80
2023-05-06T09:28:53.911Z,22.13
2023-05-06T09:33:56.316Z,16.40
2023-05-06T09:38:58.179Z,15.10
2023-05-06T09:44:01.394Z,22.23
2023-05-06T09:49:03.777Z,18.10
2023-05-06T09:54:05.596Z,22.10
2023-05-06T09:59:08.641Z,17.20
2023-05-06T10:04:10.910Z,19.83
2023-05-06T10:09:12.914Z,14.40
2023-05-06T10:14:16.029Z,15.07
2023-05-06T10:19:19.014Z,16.30
2023-05-06T10:24:23.499Z,19.93
2023-05-06T10:29:26.723Z,13.43
2023-05-06T10:34:28.415Z,11.33
2023-05-06T10:39:30.162Z,12.47
2023-05-06T10:44:57.192Z,16.87
2023-05-06T10:50:21.090Z,17.20
2023-05-06T10:55:27.248Z,18.20
2023-05-06T11:00:32.321Z,19.40
2023-05-06T11:05:46.007Z,16.80
2023-05-06T11:10:47.896Z,15.30
2023-05-06T11:15:52.019Z,19.33
2023-05-06T11:21:22.784Z,18.87
2023-05-06T11:26:24.807Z,14.60
2023-05-06T11:31:27.975Z,18.63
2023-05-06T11:36:29.790Z,15.20
2023-05-06T11:41:31.418Z,14.00
2023-05-06T11:46:34.482Z,13.90
2023-05-06T11:51:36.221Z,11.73
2023-05-06T11:56:44.533Z,16.87
2023-05-06T12:01:47.647Z,12.33
2023-05-06T12:06:49.394Z,16.53
2023-05-06T12:11:51.307Z,13.37
2023-05-06T12:16:56.079Z,17.67
2023-05-06T12:22:19.495Z,16.47
2023-05-06T12:27:31.464Z,12.97
2023-05-06T12:32:34.541Z,14.30
2023-05-06T12:37:36.234Z,12.17
2023-05-06T12:42:37.942Z,15.33
2023-05-06T12:47:51.325Z,11.03
2023-05-06T12:52:53.063Z,11.70
2023-05-06T12:57:57.216Z,14.10
2023-05-06T13:03:01.425Z,13.60
2023-05-06T13:08:04.371Z,19.10
2023-05-06T13:13:06.549Z,13.43
2023-05-06T13:18:09.907Z,13.20
2023-05-06T13:23:11.725Z,17.27
2023-05-06T13:28:13.526Z,18.03
2023-05-06T13:33:16.644Z,19.53
2023-05-06T13:38:18.371Z,15.73
2023-05-06T13:43:20.105Z,14.60
2023-05-06T13:48:23.095Z,18.30
2023-05-06T13:53:24.825Z,14.63
2023-05-06T13:58:26.767Z,17.83
2023-05-06T14:03:29.773Z,18.80
2023-05-06T14:08:32.690Z,16.83
2023-05-06T14:13:34.407Z,13.60
2023-05-06T14:18:37.450Z,16.60
2023-05-06T14:23:39.213Z,19.43
2023-05-06T14:28:40.925Z,17.23
2023-05-06T14:33:43.936Z,17.40
2023-05-06T14:38:45.608Z,23.70
2023-05-06T14:43:47.265Z,16.77
2023-05-06T14:48:50.654Z,16.40
2023-05-06T14:53:52.340Z,16.50
2023-05-06T14:58:54.066Z,15.20
2023-05-06T15:03:57.142Z,14.27
2023-05-06T15:08:58.843Z,16.80
2023-05-06T15:14:00.588Z,17.93
2023-05-06T15:19:04.289Z,18.90
2023-05-06T15:24:06.957Z,14.87
2023-05-06T15:29:08.666Z,16.57
2023-05-06T15:34:11.794Z,16.83
2023-05-06T15:39:13.519Z,16.93
2023-05-06T15:44:16.359Z,18.40
2023-05-06T15:49:48.842Z,15.87
2023-05-06T15:54:41.506Z,16.30
2023-05-06T15:59:43.297Z,22.73
2023-05-06T16:04:46.546Z,16.80
2023-05-06T16:09:49.079Z,16.67
2023-05-06T16:14:51.001Z,13.73
2023-05-06T16:19:54.033Z,16.67
2023-05-06T16:24:56.012Z,14.33
2023-05-06T16:29:57.795Z,16.03
2023-05-06T16:35:00.917Z,19.40
2023-05-06T16:40:02.733Z,16.37
2023-05-06T16:45:06.078Z,15.67
2023-05-06T16:50:09.811Z,19.83
2023-05-06T16:55:11.768Z,16.60
2023-05-06T17:00:15.385Z,20.20
2023-05-06T17:05:20.635Z,21.53
2023-05-06T17:10:29.048Z,20.13
2023-05-06T17:15:31.032Z,19.80
2023-05-06T17:20:51.510Z,18.90
2023-05-06T17:25:57.223Z,23.00
2023-05-06T17:30:58.987Z,26.00
2023-05-06T17:36:02.147Z,25.70
2023-05-06T17:41:04.210Z,27.07
2023-05-06T17:46:06.746Z,26.33
2023-05-06T17:51:09.961Z,27.13
2023-05-06T17:56:11.788Z,30.27
2023-05-06T18:01:13.606Z,27.83
2023-05-06T18:06:16.889Z,28.43
2023-05-06T18:11:18.716Z,27.27
2023-05-06T18:16:20.697Z,29.80
2023-05-06T18:21:23.933Z,24.67
2023-05-06T18:26:39.915Z,24.47
2023-05-06T18:31:46.172Z,25.23
2023-05-06T18:36:49.223Z,23.03
2023-05-06T18:41:51.016Z,23.03
2023-05-06T18:46:52.697Z,21.07
2023-05-06T18:51:56.058Z,27.17
2023-05-06T18:56:58.652Z,22.40
2023-05-06T19:02:01.915Z,21.93
2023-05-06T19:07:05.794Z,21.10
2023-05-06T19:12:07.545Z,18.90
2023-05-06T19:17:09.384Z,19.13
2023-05-06T19:22:13.578Z,18.73
2023-05-06T19:27:15.553Z,20.60
2023-05-06T19:32:17.313Z,15.90
2023-05-06T19:37:20.367Z,16.70
2023-05-06T19:42:22.057Z,16.40
2023-05-06T19:47:23.929Z,16.87
2023-05-06T19:52:30.410Z,17.80
2023-05-06T19:57:33.628Z,15.50
2023-05-06T20:02:36.224Z,15.67
2023-05-06T20:07:39.323Z,17.10
2023-05-06T20:12:41.336Z,15.50
2023-05-06T20:17:43.255Z,16.30
2023-05-06T20:22:46.352Z,14.67
2023-05-06T20:27:48.083Z,16.17
2023-05-06T20:32:51.968Z,15.87
2023-05-06T20:37:55.701Z,15.33
2023-05-06T20:42:57.467Z,14.40
2023-05-06T20:47:59.279Z,15.90
2023-05-06T20:53:02.408Z,15.07
2023-05-06T20:58:04.306Z,18.53
2023-05-06T21:03:06.174Z,16.30
2023-05-06T21:08:09.328Z,16.97
2023-05-06T21:13:11.058Z,16.50
2023-05-06T21:18:13.217Z,17.93
2023-05-06T21:23:16.421Z,18.30
2023-05-06T21:28:18.232Z,17.57
2023-05-06T21:33:19.982Z,19.30
2023-05-06T21:38:23.110Z,19.30
2023-05-06T21:43:24.848Z,20.70
2023-05-06T21:48:26.583Z,19.00
2023-05-06T21:53:29.628Z,19.80
2023-05-06T21:58:31.332Z,17.50
2023-05-06T22:03:33.151Z,19.10
2023-05-06T22:08:36.302Z,20.80
2023-05-06T22:13:38.038Z,19.60
2023-05-06T22:18:41.456Z,19.17
2023-05-06T22:23:44.713Z,20.10
2023-05-06T22:28:47.033Z,20.40
2023-05-06T22:33:52.093Z,23.07
2023-05-06T22:38:55.234Z,20.90
2023-05-06T22:43:59.907Z,19.37
2023-05-06T22:49:01.715Z,19.83
2023-05-06T22:54:04.983Z,21.30
2023-05-06T22:59:07.113Z,18.87
2023-05-06T23:04:08.913Z,20.37
2023-05-06T23:09:12.478Z,19.80
2023-05-06T23:14:14.200Z,19.70
2023-05-06T23:19:15.889Z,20.70
2023-05-06T23:24:18.900Z,24.80
2023-05-06T23:29:20.666Z,22.17
2023-05-06T23:34:22.399Z,20.43
2023-05-06T23:39:25.455Z,19.03
2023-05-06T23:44:27.207Z,22.03
2023-05-06T23:49:28.928Z,23.00
2023-05-06T23:54:31.964Z,19.40
2023-05-06T23:59:33.757Z,23.03
